Time;durP1;ratioP1;P1;durP2;ratioP2;P2;SDS_P1;SDS_P2;PMS_P1;PMS_P2;Temp;Humidity;BMP_temperature;BMP_pressure;BME280_temperature;BME280_humidity;BME280_pressure;Samples;Min_cycle;Max_cycle;Signal;HPM_P1;HPM_P2
2023/05/07 00:01:18;;;;;;;10.32;2.10;;;;;;;16.73;100.00;100930.06;5071536;28;20068;-64
2023/05/07 00:04:07;;;;;;;9.45;2.83;;;;;;;16.73;100.00;100920.91;5053034;28;20551;-64
2023/05/07 00:06:55;;;;;;;9.18;3.40;;;;;;;16.75;100.00;100924.94;5061151;28;20053;-67
2023/05/07 00:09:43;;;;;;;12.07;3.17;;;;;;;16.37;100.00;100930.03;5074614;28;20059;-64
2023/05/07 00:12:33;;;;;;;6.15;2.22;;;;;;;16.60;100.00;100922.06;5084457;28;20052;-65
2023/05/07 00:15:21;;;;;;;7.35;2.17;;;;;;;16.43;100.00;100930.63;5091099;28;20086;-64
2023/05/07 00:18:08;;;;;;;7.40;1.83;;;;;;;16.33;100.00;100929.13;5085817;28;20455;-64
2023/05/07 00:20:56;;;;;;;4.57;1.70;;;;;;;16.43;100.00;100936.19;5078988;28;20070;-64
2023/05/07 00:23:44;;;;;;;5.75;2.00;;;;;;;16.40;100.00;100946.03;5068318;28;20057;-64
2023/05/07 00:26:32;;;;;;;4.80;1.88;;;;;;;16.64;100.00;100945.25;5047926;28;20076;-63
2023/05/07 00:29:19;;;;;;;7.53;1.75;;;;;;;16.61;100.00;100946.78;5068908;28;20056;-62
2023/05/07 00:32:08;;;;;;;4.25;1.85;;;;;;;16.51;100.00;100947.22;5071887;28;20346;-63
2023/05/07 00:34:55;;;;;;;4.50;1.83;;;;;;;16.31;100.00;100950.91;5061652;28;20056;-63
2023/05/07 00:37:43;;;;;;;5.47;1.67;;;;;;;16.23;100.00;100948.22;5057297;28;20064;-64
2023/05/07 00:40:30;;;;;;;6.82;1.80;;;;;;;16.08;100.00;100938.56;5063438;28;20068;-64
2023/05/07 00:43:18;;;;;;;4.15;1.70;;;;;;;16.15;100.00;100938.81;5052812;28;20057;-65
2023/05/07 00:46:06;;;;;;;7.95;2.20;;;;;;;16.43;100.00;100941.75;5060260;28;20436;-64
2023/05/07 00:48:53;;;;;;;4.60;1.67;;;;;;;16.60;100.00;100941.53;5057798;28;20407;-63
2023/05/07 00:51:41;;;;;;;2.80;1.20;;;;;;;16.27;100.00;100938.00;5057275;28;20084;-63
2023/05/07 00:54:29;;;;;;;6.88;1.67;;;;;;;16.17;100.00;100938.47;5058873;28;20079;-64
2023/05/07 00:57:16;;;;;;;3.80;1.58;;;;;;;16.35;100.00;100926.78;5054222;28;20060;-64
2023/05/07 01:00:05;;;;;;;2.55;1.15;;;;;;;16.53;100.00;100928.22;5053489;28;20393;-62
2023/05/07 01:02:53;;;;;;;5.60;1.50;;;;;;;16.35;100.00;100929.56;5063459;28;20059;-63
2023/05/07 01:05:42;;;;;;;3.03;1.13;;;;;;;16.34;100.00;100925.16;5059979;28;20076;-63
2023/05/07 01:08:31;;;;;;;4.53;1.35;;;;;;;16.40;100.00;100918.25;5058807;28;20063;-64
2023/05/07 01:11:22;;;;;;;5.43;1.15;;;;;;;16.42;100.00;100909.53;5054355;28;20087;-64
2023/05/07 01:14:09;;;;;;;4.50;1.25;;;;;;;16.52;100.00;100907.16;5046459;28;20132;-63
2023/05/07 01:16:58;;;;;;;3.30;0.93;;;;;;;16.53;100.00;100900.41;5055441;28;20045;-64
2023/05/07 01:19:47;;;;;;;3.60;1.17;;;;;;;16.66;100.00;100902.03;5057874;28;20055;-63
2023/05/07 01:22:37;;;;;;;2.35;0.80;;;;;;;16.54;100.00;100904.00;5056552;28;20060;-62
2023/05/07 01:25:26;;;;;;;3.33;0.80;;;;;;;16.47;100.00;100906.56;5046176;28;20056;-63
2023/05/07 01:28:16;;;;;;;2.05;0.75;;;;;;;16.75;100.00;100899.91;5059010;28;20056;-64
2023/05/07 01:31:06;;;;;;;2.97;1.10;;;;;;;16.53;100.00;100905.16;5040732;28;20061;-63
2023/05/07 01:33:56;;;;;;;3.20;1.02;;;;;;;16.60;100.00;100911.75;5051405;28;20049;-64
2023/05/07 01:36:44;;;;;;;3.78;1.10;;;;;;;16.51;100.00;100904.72;5056579;28;20056;-64
2023/05/07 01:39:32;;;;;;;2.35;0.98;;;;;;;16.36;100.00;100902.59;5039117;28;20049;-64
2023/05/07 01:42:21;;;;;;;3.80;0.80;;;;;;;16.23;100.00;100906.53;5053341;28;20052;-64
2023/05/07 01:45:09;;;;;;;6.80;1.50;;;;;;;16.36;100.00;100908.97;5038377;28;20056;-63
2023/05/07 01:47:58;;;;;;;3.95;1.30;;;;;;;16.26;100.00;100909.44;5044729;28;20902;-65
2023/05/07 01:50:47;;;;;;;4.63;1.10;;;;;;;16.37;100.00;100915.34;5053251;28;20423;-63
2023/05/07 01:53:40;;;;;;;2.97;1.30;;;;;;;16.33;100.00;100911.63;5039219;28;20775;-63
2023/05/07 01:56:28;;;;;;;5.50;1.35;;;;;;;16.24;100.00;100910.91;5053225;28;20044;-63
2023/05/07 01:59:16;;;;;;;3.40;1.42;;;;;;;16.42;100.00;100918.69;5038425;28;20057;-64
2023/05/07 02:02:03;;;;;;;5.10;1.20;;;;;;;16.31;100.00;100914.75;5041752;28;20052;-62
2023/05/07 02:04:52;;;;;;;3.97;1.38;;;;;;;16.41;100.00;100919.03;5048068;28;20058;-63
2023/05/07 02:07:41;;;;;;;2.10;1.00;;;;;;;16.47;100.00;100915.72;5055297;28;20036;-63
2023/05/07 02:10:29;;;;;;;3.75;1.20;;;;;;;16.52;100.00;100914.66;5071832;28;20044;-63
2023/05/07 02:13:17;;;;;;;5.85;1.50;;;;;;;16.60;100.00;100905.38;5049476;28;20059;-64
2023/05/07 02:16:05;;;;;;;2.72;1.33;;;;;;;16.52;100.00;100906.31;5072141;28;20059;-64
2023/05/07 02:18:53;;;;;;;3.22;1.00;;;;;;;16.55;100.00;100913.97;5052840;28;20048;-62
2023/05/07 02:21:41;;;;;;;6.07;1.70;;;;;;;16.28;100.00;100917.41;5059078;28;20056;-63
2023/05/07 02:24:29;;;;;;;4.57;1.60;;;;;;;16.49;100.00;100918.16;5077984;28;20055;-63
2023/05/07 02:27:17;;;;;;;3.55;1.40;;;;;;;16.40;100.00;100921.03;5038604;28;20049;-64
2023/05/07 02:30:06;;;;;;;3.83;1.50;;;;;;;16.53;100.00;100922.66;5046369;28;20455;-63
2023/05/07 02:32:53;;;;;;;3.50;1.58;;;;;;;16.47;100.00;100923.25;5052620;28;20055;-63
2023/05/07 02:35:42;;;;;;;4.85;1.60;;;;;;;16.49;100.00;100920.94;5054946;28;20094;-63
2023/05/07 02:38:32;;;;;;;2.75;1.27;;;;;;;16.59;100.00;100924.06;5057775;28;20445;-63
2023/05/07 02:41:20;;;;;;;5.32;1.27;;;;;;;16.25;100.00;100935.59;5039876;28;20060;-63
2023/05/07 02:44:08;;;;;;;3.05;1.33;;;;;;;16.22;100.00;100941.84;5050576;28;20049;-63
2023/05/07 02:46:55;;;;;;;4.93;1.65;;;;;;;16.33;100.00;100929.13;5054001;28;20078;-63
2023/05/07 02:49:43;;;;;;;3.10;1.17;;;;;;;16.55;100.00;100942.59;5051414;28;20052;-63
2023/05/07 02:52:30;;;;;;;3.70;1.48;;;;;;;16.66;100.00;100934.59;5052077;28;20049;-64
2023/05/07 02:55:18;;;;;;;3.20;0.93;;;;;;;16.25;100.00;100932.00;5045379;28;20063;-64
2023/05/07 02:58:06;;;;;;;6.68;1.20;;;;;;;16.28;100.00;100932.13;5072278;28;20057;-63
2023/05/07 03:00:55;;;;;;;6.10;1.60;;;;;;;16.54;100.00;100926.25;5042504;28;20056;-63
2023/05/07 03:03:51;;;;;;;3.38;1.38;;;;;;;16.36;100.00;100930.38;5040998;28;20056;-63
2023/05/07 03:06:39;;;;;;;3.95;1.38;;;;;;;16.32;100.00;100929.47;5037924;28;20626;-63
2023/05/07 03:09:26;;;;;;;3.33;1.17;;;;;;;16.56;100.00;100933.06;5055853;28;20053;-63
2023/05/07 03:12:14;;;;;;;4.75;1.30;;;;;;;16.83;100.00;100937.94;5053551;28;20052;-63
2023/05/07 03:15:01;;;;;;;3.97;1.20;;;;;;;16.50;100.00;100931.69;5058397;28;20060;-63
2023/05/07 03:17:49;;;;;;;4.25;1.17;;;;;;;16.59;100.00;100926.03;5042092;28;20049;-63
2023/05/07 03:20:37;;;;;;;2.17;0.90;;;;;;;16.49;100.00;100932.06;5053101;28;20052;-63
2023/05/07 03:23:24;;;;;;;2.30;1.02;;;;;;;16.15;100.00;100922.16;5051984;28;20057;-63
2023/05/07 03:26:12;;;;;;;2.63;0.85;;;;;;;16.18;100.00;100923.44;5051317;28;20060;-62
2023/05/07 03:28:59;;;;;;;1.77;0.80;;;;;;;16.28;100.00;100920.19;5071280;28;20056;-63
2023/05/07 03:31:47;;;;;;;1.65;0.90;;;;;;;15.89;100.00;100926.38;5068939;28;20046;-63
2023/05/07 03:34:35;;;;;;;3.30;0.80;;;;;;;16.02;100.00;100926.09;5037404;28;20056;-63
2023/05/07 03:37:22;;;;;;;1.95;0.90;;;;;;;16.43;100.00;100930.63;5066743;28;20044;-63
2023/05/07 03:40:12;;;;;;;1.50;0.73;;;;;;;16.56;100.00;100926.72;5037183;28;20045;-64
2023/05/07 03:43:13;;;;;;;2.60;0.80;;;;;;;16.74;100.00;100934.47;5057932;28;20067;-63
2023/05/07 03:46:05;;;;;;;5.03;1.15;;;;;;;16.74;100.00;100942.00;5047783;28;20419;-64
2023/05/07 03:48:53;;;;;;;1.98;0.80;;;;;;;16.72;100.00;100941.53;5060946;28;20048;-63
2023/05/07 03:51:41;;;;;;;1.60;0.75;;;;;;;16.69;100.00;100942.22;5073990;28;20056;-64
2023/05/07 03:54:30;;;;;;;3.40;1.20;;;;;;;16.64;100.00;100942.47;5071306;28;20071;-63
2023/05/07 03:57:17;;;;;;;4.43;0.85;;;;;;;16.25;100.00;100932.00;5055143;28;20061;-62
2023/05/07 04:00:06;;;;;;;3.08;0.95;;;;;;;16.35;100.00;100923.22;5069323;28;20057;-63
2023/05/07 04:03:07;;;;;;;4.43;1.05;;;;;;;16.39;100.00;100929.69;5065008;28;20048;-64
2023/05/07 04:05:54;;;;;;;2.88;1.00;;;;;;;16.15;100.00;100933.25;5068564;28;20053;-64
2023/05/07 04:08:43;;;;;;;2.28;0.95;;;;;;;16.15;100.00;100935.22;5069403;28;20045;-64
2023/05/07 04:11:31;;;;;;;3.20;0.85;;;;;;;16.05;100.00;100941.22;5074111;28;20056;-63
2023/05/07 04:14:18;;;;;;;4.05;0.95;;;;;;;16.51;100.00;100944.44;5075519;28;20052;-63
2023/05/07 04:17:07;;;;;;;4.60;1.42;;;;;;;16.24;100.00;100950.66;5068721;28;20045;-63
2023/05/07 04:19:54;;;;;;;3.80;0.93;;;;;;;16.05;100.00;100950.38;5041428;28;20057;-64
2023/05/07 04:22:42;;;;;;;38.40;22.67;;;;;;;16.43;100.00;100950.91;5068502;28;20507;-62
2023/05/07 04:25:30;;;;;;;14.77;6.57;;;;;;;16.40;100.00;100951.59;5072250;28;20074;-64
2023/05/07 04:28:26;;;;;;;29.77;18.02;;;;;;;16.53;100.00;100949.66;5076057;28;20045;-63
2023/05/07 04:31:14;;;;;;;3.70;1.83;;;;;;;16.44;100.00;100955.28;5079392;28;20412;-64
2023/05/07 04:34:03;;;;;;;4.60;1.35;;;;;;;16.22;100.00;100964.09;5076539;28;20055;-63
2023/05/07 04:36:51;;;;;;;6.55;3.80;;;;;;;16.58;100.00;100952.22;5066854;28;20063;-63
2023/05/07 04:39:39;;;;;;;2.42;0.90;;;;;;;16.40;100.00;100970.25;5074782;28;20056;-63
2023/05/07 04:42:27;;;;;;;3.33;0.82;;;;;;;16.08;100.00;100966.38;5080474;28;20056;-63
2023/05/07 04:45:16;;;;;;;3.13;1.00;;;;;;;16.43;100.00;100977.88;5060422;28;20057;-63
2023/05/07 04:48:05;;;;;;;3.42;1.13;;;;;;;16.44;100.00;100980.31;5071632;28;20055;-64
2023/05/07 04:50:54;;;;;;;1.92;0.93;;;;;;;16.01;100.00;100970.84;5078789;28;20083;-63
2023/05/07 04:53:42;;;;;;;4.60;1.00;;;;;;;16.10;100.00;100975.19;5075227;28;20068;-63
2023/05/07 04:56:31;;;;;;;5.68;0.80;;;;;;;16.04;100.00;100984.09;5072138;28;20764;-63
2023/05/07 04:59:20;;;;;;;2.43;0.90;;;;;;;15.79;100.00;100981.19;5077513;28;20050;-63
2023/05/07 05:02:10;;;;;;;2.85;0.90;;;;;;;15.67;100.00;100983.94;5061997;28;20309;-63
2023/05/07 05:04:59;;;;;;;2.35;1.02;;;;;;;16.04;100.00;100982.09;5072808;28;20492;-63
2023/05/07 05:07:46;;;;;;;2.15;0.90;;;;;;;15.86;100.00;100988.19;5086022;28;20514;-64
2023/05/07 05:10:34;;;;;;;3.72;0.88;;;;;;;15.78;100.00;100985.16;5089699;28;20067;-63
2023/05/07 05:13:22;;;;;;;2.38;1.00;;;;;;;15.68;100.00;100984.75;5064165;28;20045;-64
2023/05/07 05:16:10;;;;;;;4.03;1.20;;;;;;;15.56;100.00;100988.31;5059542;28;20052;-64
2023/05/07 05:18:59;;;;;;;2.95;1.10;;;;;;;15.64;100.00;100992.13;5072775;28;20142;-64
2023/05/07 05:21:47;;;;;;;1.35;0.82;;;;;;;15.62;100.00;100994.47;5069933;28;20037;-64
2023/05/07 05:24:35;;;;;;;2.47;0.70;;;;;;;15.92;100.00;100998.72;5059752;28;20067;-63
2023/05/07 05:27:23;;;;;;;3.72;1.13;;;;;;;16.07;100.00;100995.31;5052323;28;20479;-64
2023/05/07 05:30:11;;;;;;;3.20;1.10;;;;;;;15.90;100.00;101008.59;5061873;28;20102;-65
2023/05/07 05:33:00;;;;;;;2.38;1.10;;;;;;;16.06;100.00;101006.75;5053674;28;20049;-63
2023/05/07 05:35:49;;;;;;;2.15;1.00;;;;;;;16.23;100.00;101006.59;5067218;28;20045;-62
2023/05/07 05:38:37;;;;;;;2.35;1.13;;;;;;;16.16;100.00;101007.13;5059925;28;20063;-64
2023/05/07 05:41:25;;;;;;;3.75;1.05;;;;;;;16.15;100.00;101008.31;5059689;28;20053;-64
2023/05/07 05:44:13;;;;;;;4.97;1.15;;;;;;;16.42;100.00;101015.19;5057896;28;20049;-65
2023/05/07 05:47:03;;;;;;;3.63;1.00;;;;;;;16.23;100.00;101015.72;5028906;28;20045;-64
2023/05/07 05:49:50;;;;;;;2.97;1.00;;;;;;;16.13;100.00;101021.72;5051380;28;20041;-64
2023/05/07 05:52:38;;;;;;;2.22;0.88;;;;;;;16.22;100.00;101016.06;5053255;28;20049;-65
2023/05/07 05:55:26;;;;;;;3.03;1.00;;;;;;;16.34;100.00;101024.44;5063724;28;20044;-65
2023/05/07 05:58:15;;;;;;;3.45;1.02;;;;;;;16.26;100.00;101017.00;5044079;28;20527;-64
2023/05/07 06:01:09;;;;;;;2.65;0.90;;;;;;;16.27;100.00;101015.84;5045633;28;20052;-63
2023/05/07 06:03:57;;;;;;;2.70;0.90;;;;;;;16.30;100.00;101013.19;5052932;28;20061;-65
2023/05/07 06:06:45;;;;;;;2.13;1.00;;;;;;;16.29;100.00;101019.09;5063840;28;20061;-63
2023/05/07 06:09:33;;;;;;;3.33;1.00;;;;;;;16.27;100.00;101018.63;5056312;28;20057;-64
2023/05/07 06:12:21;;;;;;;1.27;0.90;;;;;;;16.25;100.00;101018.19;5052557;28;20059;-64
2023/05/07 06:15:09;;;;;;;6.22;1.20;;;;;;;16.34;100.00;101022.47;5064548;28;20056;-63
2023/05/07 06:17:58;;;;;;;2.38;0.90;;;;;;;16.41;100.00;101024.69;5059855;28;20640;-64
2023/05/07 06:20:46;;;;;;;2.83;1.10;;;;;;;16.47;100.00;101028.91;5067326;28;20040;-64
2023/05/07 06:23:42;;;;;;;2.83;0.80;;;;;;;16.34;100.00;101030.81;5051794;28;20074;-64
2023/05/07 06:26:31;;;;;;;2.15;0.85;;;;;;;16.52;100.00;101029.50;5052019;28;20692;-63
2023/05/07 06:29:18;;;;;;;1.42;0.90;;;;;;;16.45;100.00;101033.97;5048873;28;20059;-63
2023/05/07 06:32:10;;;;;;;2.25;0.80;;;;;;;16.47;100.00;101037.25;5066472;28;20416;-63
2023/05/07 06:35:00;;;;;;;3.45;0.90;;;;;;;17.09;100.00;101029.38;5056174;28;20063;-63
2023/05/07 06:37:47;;;;;;;2.40;1.00;;;;;;;17.35;99.06;101032.59;5067442;28;20053;-65
2023/05/07 06:40:42;;;;;;;3.22;0.90;;;;;;;17.48;98.17;101033.41;5051270;28;20060;-63
2023/05/07 06:43:30;;;;;;;2.25;1.00;;;;;;;17.64;98.95;101032.31;5068765;28;20055;-64
2023/05/07 06:46:36;;;;;;;1.55;0.88;;;;;;;17.62;97.90;101036.63;5064368;28;20048;-67
2023/05/07 06:49:25;;;;;;;2.67;1.00;;;;;;;17.51;96.90;101038.28;5068340;28;20123;-63
2023/05/07 06:52:13;;;;;;;3.50;0.70;;;;;;;17.55;96.22;101044.78;5056507;28;20041;-65
2023/05/07 06:55:02;;;;;;;2.55;0.90;;;;;;;17.62;96.20;101045.81;5052266;28;20045;-66
2023/05/07 06:57:49;;;;;;;6.93;2.83;;;;;;;17.73;94.98;101046.91;5049936;28;20052;-66
2023/05/07 07:00:38;;;;;;;13.07;9.45;;;;;;;17.82;94.86;101044.78;5041249;28;20060;-65
2023/05/07 07:03:26;;;;;;;2.80;1.55;;;;;;;17.86;94.22;101048.50;5050709;28;20060;-67
2023/05/07 07:06:15;;;;;;;2.13;0.80;;;;;;;17.82;93.71;101046.75;5057787;28;20052;-65
2023/05/07 07:09:03;;;;;;;3.95;1.20;;;;;;;17.56;92.94;101058.34;5057817;28;20052;-66
2023/05/07 07:11:51;;;;;;;2.10;1.00;;;;;;;17.67;93.49;101056.69;5053684;28;20051;-66
2023/05/07 07:14:39;;;;;;;2.70;1.13;;;;;;;17.64;94.22;101062.94;5057571;28;20048;-67
2023/05/07 07:17:27;;;;;;;3.65;1.40;;;;;;;17.63;94.32;101063.31;5037999;28;20055;-70
2023/05/07 07:20:16;;;;;;;3.60;1.30;;;;;;;17.88;93.73;101060.13;5043096;28;20060;-70
2023/05/07 07:23:05;;;;;;;2.97;1.17;;;;;;;17.94;93.34;101060.66;5040607;28;20087;-69
2023/05/07 07:25:52;;;;;;;3.65;1.30;;;;;;;18.01;92.99;101065.63;5054855;28;20055;-70
2023/05/07 07:28:44;;;;;;;3.90;1.48;;;;;;;17.97;93.41;101065.53;5039539;28;20143;-69
2023/05/07 07:31:35;;;;;;;3.25;1.58;;;;;;;18.02;93.22;101075.63;5038741;28;20049;-67
2023/05/07 07:34:23;;;;;;;3.00;1.40;;;;;;;17.87;92.28;101068.81;5053916;28;20062;-67
2023/05/07 07:37:10;;;;;;;4.55;1.20;;;;;;;17.84;92.90;101075.09;5048296;28;20507;-68
2023/05/07 07:39:58;;;;;;;4.90;1.50;;;;;;;17.98;92.93;101070.75;5046323;28;20547;-66
2023/05/07 07:42:46;;;;;;;5.55;1.42;;;;;;;17.95;92.41;101079.00;5048350;28;20067;-65
2023/05/07 07:45:34;;;;;;;4.50;1.60;;;;;;;17.97;92.90;101077.47;5064299;28;20052;-65
2023/05/07 07:48:22;;;;;;;6.47;1.33;;;;;;;18.14;92.37;101076.38;5050745;28;20515;-65
2023/05/07 07:51:10;;;;;;;3.05;1.20;;;;;;;18.28;91.95;101073.16;5050661;28;20048;-67
2023/05/07 07:53:58;;;;;;;2.72;1.08;;;;;;;18.28;91.21;101078.75;5067820;28;20045;-66
2023/05/07 07:56:45;;;;;;;2.95;1.20;;;;;;;18.14;90.84;101081.13;5052401;28;20052;-65
2023/05/07 07:59:34;;;;;;;5.00;1.20;;;;;;;18.24;90.41;101083.41;5051230;28;20206;-65
2023/05/07 08:02:21;;;;;;;3.40;1.20;;;;;;;18.42;90.16;101076.38;5036321;28;20389;-67
2023/05/07 08:05:10;;;;;;;3.85;0.93;;;;;;;18.41;89.74;101085.94;5050513;28;20052;-64
2023/05/07 08:07:58;;;;;;;4.43;1.40;;;;;;;18.38;89.54;101081.81;5050921;28;20393;-65
2023/05/07 08:10:50;;;;;;;2.90;1.10;;;;;;;18.42;89.50;101080.00;5057871;28;20052;-64
2023/05/07 08:13:45;;;;;;;3.72;1.15;;;;;;;18.21;89.06;101096.09;5047271;28;20052;-65
2023/05/07 08:16:33;;;;;;;2.42;1.00;;;;;;;18.34;89.42;101094.84;5046457;28;20059;-66
2023/05/07 08:19:21;;;;;;;4.55;1.27;;;;;;;18.51;88.92;101096.56;5045741;28;20041;-64
2023/05/07 08:22:10;;;;;;;3.63;1.10;;;;;;;18.65;88.72;101102.53;5061733;28;20067;-64
2023/05/07 08:24:59;;;;;;;3.10;0.88;;;;;;;18.73;88.70;101107.13;5048419;28;20045;-63
2023/05/07 08:27:48;;;;;;;2.65;1.15;;;;;;;18.73;88.28;101107.13;5039677;28;20051;-64
2023/05/07 08:30:36;;;;;;;1.98;0.90;;;;;;;18.84;87.89;101111.00;5055653;28;20051;-63
2023/05/07 08:33:23;;;;;;;2.67;1.10;;;;;;;18.85;88.13;101112.59;5053288;28;20060;-63
2023/05/07 08:36:11;;;;;;;2.38;1.05;;;;;;;18.81;87.71;101114.53;5070836;28;20059;-63
2023/05/07 08:38:59;;;;;;;3.35;1.20;;;;;;;18.94;87.49;101118.84;5065446;28;20049;-63
2023/05/07 08:41:48;;;;;;;2.20;0.90;;;;;;;19.04;87.07;101109.91;5055197;28;20424;-63
2023/05/07 08:44:38;;;;;;;3.55;1.30;;;;;;;19.07;86.78;101112.00;5068844;28;20491;-63
2023/05/07 08:47:27;;;;;;;;;;;;;;;19.05;87.04;101120.75;5052812;28;20515;-64
2023/05/07 08:50:15;;;;;;;2.85;1.30;;;;;;;18.89;87.38;101122.72;5031463;28;19927;-63
2023/05/07 08:53:04;;;;;;;6.65;1.15;;;;;;;19.11;87.19;101110.09;5070326;28;20051;-63
2023/05/07 08:55:52;;;;;;;4.65;1.20;;;;;;;19.21;87.03;101111.53;5049701;28;20049;-63
2023/05/07 08:58:41;;;;;;;5.03;1.40;;;;;;;19.25;86.96;101112.44;5055591;28;20041;-61
2023/05/07 09:01:28;;;;;;;9.27;1.23;;;;;;;19.25;86.57;101116.03;5042714;28;20040;-63
2023/05/07 09:04:17;;;;;;;3.72;1.23;;;;;;;19.44;86.10;101120.91;5061501;28;20060;-64
2023/05/07 09:07:05;;;;;;;3.58;1.30;;;;;;;19.31;84.98;101119.38;5068452;28;20052;-62
2023/05/07 09:10:01;;;;;;;2.97;1.10;;;;;;;19.38;85.39;101109.22;5054853;28;20127;-62
2023/05/07 09:12:50;;;;;;;2.88;1.10;;;;;;;19.41;83.52;101121.63;5041563;28;20040;-60
2023/05/07 09:15:38;;;;;;;4.47;1.70;;;;;;;19.50;83.71;101113.84;5056602;28;20059;-63
2023/05/07 09:18:26;;;;;;;4.93;1.38;;;;;;;19.72;83.21;101125.16;5056590;28;20057;-63
2023/05/07 09:21:15;;;;;;;3.10;1.30;;;;;;;19.65;83.11;101122.22;5074113;28;20048;-63
2023/05/07 09:24:04;;;;;;;2.75;1.10;;;;;;;19.52;82.40;101126.31;5054086;28;20064;-62
2023/05/07 09:27:03;;;;;;;3.22;1.40;;;;;;;19.42;83.42;101118.47;5061819;28;20052;-64
2023/05/07 09:29:50;;;;;;;4.43;1.30;;;;;;;19.68;83.55;101113.09;5062081;28;20057;-64
2023/05/07 09:32:38;;;;;;;2.70;1.25;;;;;;;19.46;82.10;101122.16;5064330;28;20051;-64
2023/05/07 09:35:32;;;;;;;3.10;1.60;;;;;;;19.52;84.45;101117.09;5054014;28;20053;-62
2023/05/07 09:38:26;;;;;;;2.58;1.30;;;;;;;19.61;83.24;101114.94;5059103;28;20694;-63
2023/05/07 09:41:18;;;;;;;2.67;1.45;;;;;;;19.89;83.99;101119.16;5037862;28;20056;-61
2023/05/07 09:44:28;;;;;;;6.10;1.60;;;;;;;20.02;82.49;101120.66;5051013;28;20079;-62
2023/05/07 09:47:19;;;;;;;6.35;1.40;;;;;;;19.99;81.40;101114.97;5051442;28;20051;-62
2023/05/07 09:50:11;;;;;;;4.57;1.90;;;;;;;20.01;80.60;101118.22;5049419;28;20063;-61
2023/05/07 09:53:00;;;;;;;4.32;1.38;;;;;;;19.90;80.12;101123.59;5049631;28;20048;-61
2023/05/07 09:55:48;;;;;;;2.83;1.15;;;;;;;20.04;80.43;101123.06;5049605;28;20045;-63
2023/05/07 09:58:37;;;;;;;4.72;2.03;;;;;;;20.11;79.29;101121.25;5052532;28;20063;-63
2023/05/07 10:01:25;;;;;;;4.43;2.00;;;;;;;20.35;77.39;101120.16;5037314;28;20059;-64
2023/05/07 10:04:14;;;;;;;4.43;1.80;;;;;;;20.32;77.55;101126.50;5065859;28;20059;-63
2023/05/07 10:07:04;;;;;;;4.68;1.90;;;;;;;20.49;77.77;101119.63;5042821;28;20059;-61
2023/05/07 10:09:53;;;;;;;3.80;1.60;;;;;;;20.47;76.81;101117.19;5059078;28;20150;-63
2023/05/07 10:12:50;;;;;;;3.33;1.10;;;;;;;20.26;76.88;101132.75;5047836;28;20050;-64
2023/05/07 10:15:47;;;;;;;2.17;1.25;;;;;;;20.29;76.33;101124.44;5062155;28;20049;-65
2023/05/07 10:18:36;;;;;;;2.28;1.27;;;;;;;20.40;76.00;101124.66;5056168;28;20404;-66
2023/05/07 10:21:31;;;;;;;6.03;2.30;;;;;;;20.45;75.91;101124.34;5048698;28;20064;-65
2023/05/07 10:24:27;;;;;;;9.80;5.43;;;;;;;20.52;75.38;101130.09;5056147;28;20053;-66
2023/05/07 10:27:16;;;;;;;3.42;1.58;;;;;;;20.59;75.01;101124.63;5051287;28;20053;-66
2023/05/07 10:30:18;;;;;;;3.15;1.55;;;;;;;20.41;75.16;101131.84;5027517;28;20053;-66
2023/05/07 10:33:09;;;;;;;3.13;1.70;;;;;;;20.21;74.61;101127.47;5068885;28;20049;-63
2023/05/07 10:36:00;;;;;;;4.75;1.90;;;;;;;19.77;74.63;101127.66;5058314;28;20049;-66
2023/05/07 10:38:50;;;;;;;3.00;1.30;;;;;;;19.43;74.94;101130.47;5042151;28;20060;-69
2023/05/07 10:41:38;;;;;;;4.60;1.60;;;;;;;19.73;75.73;101125.97;5038461;28;20049;-65
2023/05/07 10:44:28;;;;;;;4.18;1.60;;;;;;;20.17;74.68;101136.56;5047962;28;20044;-65
2023/05/07 10:47:21;;;;;;;6.07;1.77;;;;;;;20.07;74.61;101141.91;5044228;28;20079;-67
2023/05/07 10:50:11;;;;;;;3.38;1.70;;;;;;;19.97;75.78;101142.50;5053404;28;20484;-65
2023/05/07 10:53:16;;;;;;;4.17;1.50;;;;;;;19.54;75.98;101140.72;5053549;28;20044;-65
2023/05/07 10:56:24;;;;;;;7.57;1.70;;;;;;;19.65;76.41;101143.78;5053282;28;20052;-64
2023/05/07 10:59:21;;;;;;;6.15;1.80;;;;;;;19.60;76.85;101147.66;5049738;28;20048;-66
2023/05/07 11:02:13;;;;;;;6.72;1.50;;;;;;;18.92;78.60;101149.09;5059785;28;20572;-64
2023/05/07 11:05:23;;;;;;;3.50;1.65;;;;;;;18.80;81.20;101143.59;5051896;28;20962;-63
2023/05/07 11:08:18;;;;;;;4.72;1.98;;;;;;;18.87;82.13;101157.72;5049253;28;20060;-65
2023/05/07 11:11:13;;;;;;;5.85;2.30;;;;;;;18.54;86.67;101158.03;5041587;28;20059;-67
2023/05/07 11:14:09;;;;;;;5.43;2.15;;;;;;;18.29;89.22;101161.25;5053750;28;20526;-65
2023/05/07 11:17:09;;;;;;;5.07;2.33;;;;;;;18.37;90.33;101161.09;5052910;28;20051;-65
2023/05/07 11:19:58;;;;;;;4.57;2.60;;;;;;;18.52;91.50;101160.38;5054342;28;20044;-65
2023/05/07 11:23:01;;;;;;;5.10;2.90;;;;;;;18.46;91.57;101156.19;5052974;28;20670;-65
2023/05/07 11:25:59;;;;;;;7.45;3.25;;;;;;;18.56;93.45;101150.13;5065793;28;20045;-64
2023/05/07 11:28:47;;;;;;;7.28;2.80;;;;;;;19.14;91.65;101151.28;5065544;28;20057;-64
2023/05/07 11:31:35;;;;;;;4.97;2.50;;;;;;;19.23;90.76;101153.88;5045341;28;20423;-68
2023/05/07 11:34:25;;;;;;;7.28;2.40;;;;;;;19.17;88.91;101152.53;5034971;28;20131;-63
2023/05/07 11:37:17;;;;;;;3.28;1.60;;;;;;;19.12;85.68;101156.41;5052147;28;20049;-64
2023/05/07 11:40:18;;;;;;;4.65;2.03;;;;;;;19.16;84.57;101162.09;5055493;28;20060;-65
2023/05/07 11:43:11;;;;;;;4.80;2.00;;;;;;;19.32;83.90;101163.72;5064706;28;20064;-64
2023/05/07 11:46:07;;;;;;;4.93;1.92;;;;;;;19.68;82.36;101154.22;5062204;28;20506;-64
2023/05/07 11:48:56;;;;;;;3.88;1.88;;;;;;;19.33;81.01;101154.19;5053337;28;20049;-64
2023/05/07 11:51:44;;;;;;;2.08;1.23;;;;;;;19.24;80.84;101155.50;5064003;28;20067;-64
2023/05/07 11:54:36;;;;;;;3.38;1.50;;;;;;;19.56;80.51;101155.13;5066318;28;20049;-63
2023/05/07 11:57:24;;;;;;;5.30;1.80;;;;;;;19.25;81.67;101149.53;5066867;28;20053;-64
2023/05/07 12:00:15;;;;;;;7.88;2.53;;;;;;;19.82;79.97;101146.94;5066017;28;20064;-63
2023/05/07 12:03:05;;;;;;;4.90;2.30;;;;;;;20.00;76.18;101150.16;5063987;28;20040;-64
2023/05/07 12:05:53;;;;;;;5.78;2.45;;;;;;;19.72;76.61;101157.88;5067673;28;20064;-63
2023/05/07 12:08:42;;;;;;;3.95;2.15;;;;;;;20.21;75.53;101159.03;5065252;28;20064;-63
2023/05/07 12:11:33;;;;;;;5.47;2.63;;;;;;;20.12;74.50;101145.22;5070021;28;20045;-64
2023/05/07 12:14:21;;;;;;;5.40;2.35;;;;;;;20.46;75.71;101151.16;5055070;28;20045;-63
2023/05/07 12:17:13;;;;;;;4.05;2.15;;;;;;;20.39;73.61;101145.41;5066787;28;20067;-64
2023/05/07 12:20:01;;;;;;;4.68;2.28;;;;;;;20.02;73.90;101145.00;5066547;28;20079;-64
2023/05/07 12:22:50;;;;;;;5.68;1.80;;;;;;;20.11;73.91;101142.81;5080538;28;20537;-63
2023/05/07 12:25:39;;;;;;;4.10;2.38;;;;;;;20.11;74.49;101151.19;5074891;28;20044;-63
2023/05/07 12:28:27;;;;;;;5.90;2.40;;;;;;;20.07;75.25;101161.47;5088194;28;20044;-62
2023/05/07 12:31:15;;;;;;;8.93;3.03;;;;;;;19.76;76.55;101154.03;5090668;28;20056;-63
2023/05/07 12:34:03;;;;;;;5.88;2.60;;;;;;;19.61;76.93;101166.06;5088825;28;20044;-63
2023/05/07 12:36:51;;;;;;;6.18;2.60;;;;;;;19.78;78.19;101167.63;5088381;28;20044;-63
2023/05/07 12:39:44;;;;;;;6.30;2.70;;;;;;;19.74;77.90;101183.50;5088174;28;20056;-64
2023/05/07 12:42:36;;;;;;;4.65;2.63;;;;;;;19.78;78.47;101181.59;5075728;28;20043;-63
2023/05/07 12:45:26;;;;;;;7.85;2.97;;;;;;;19.69;78.67;101187.41;5090161;28;20675;-64
2023/05/07 12:48:13;;;;;;;6.63;3.33;;;;;;;19.66;79.96;101184.50;5083115;28;20063;-63
2023/05/07 12:51:02;;;;;;;6.03;3.00;;;;;;;19.68;79.99;101194.13;5074761;28;20044;-64
2023/05/07 12:53:49;;;;;;;5.53;3.13;;;;;;;19.50;79.76;101192.91;5077526;28;20041;-64
2023/05/07 12:56:37;;;;;;;6.32;3.10;;;;;;;19.67;79.62;101191.72;5082584;28;20158;-63
2023/05/07 12:59:39;;;;;;;7.25;3.65;;;;;;;19.55;80.04;101198.22;5089873;28;20126;-64
2023/05/07 13:02:34;;;;;;;6.30;3.28;;;;;;;19.54;81.83;101207.78;5076900;28;20074;-68
2023/05/07 13:05:22;;;;;;;8.68;3.70;;;;;;;19.39;83.73;101208.59;5086779;28;20616;-64